Time;durP1;ratioP1;P1;durP2;ratioP2;P2;SDS_P1;SDS_P2;PMS_P1;PMS_P2;Temp;Humidity;BMP_temperature;BMP_pressure;BME280_temperature;BME280_humidity;BME280_pressure;Samples;Min_cycle;Max_cycle;Signal;HPM_P1;HPM_P2
2022/06/10 00:02:15;;;;;;;14.00;7.47;;;;;;;;;;4993822;28;20062;-67
2022/06/10 00:04:45;;;;;;;14.27;5.78;;;;;;;;;;5009811;28;20058;-67
2022/06/10 00:07:15;;;;;;;16.02;7.25;;;;;;;;;;5035930;28;20052;-67
2022/06/10 00:09:46;;;;;;;18.10;7.43;;;;;;;;;;5033173;28;20069;-67
2022/06/10 00:12:15;;;;;;;17.10;7.30;;;;;;;;;;5033697;28;20064;-67
2022/06/10 00:14:46;;;;;;;14.23;6.93;;;;;;;;;;5033230;28;20056;-67
2022/06/10 00:17:17;;;;;;;18.40;7.72;;;;;;;;;;5016815;28;20159;-67
2022/06/10 00:19:47;;;;;;;15.73;6.97;;;;;;;;;;5033153;28;20408;-67
2022/06/10 00:22:18;;;;;;;16.33;6.82;;;;;;;;;;5032917;28;20045;-67
2022/06/10 00:24:51;;;;;;;16.80;6.93;;;;;;;;;;5033138;28;20052;-67
2022/06/10 00:27:21;;;;;;;14.23;8.10;;;;;;;;;;4984186;28;20563;-67
2022/06/10 00:29:52;;;;;;;15.65;6.82;;;;;;;;;;5043062;28;20504;-67
2022/06/10 00:32:22;;;;;;;16.55;7.05;;;;;;;;;;5036209;28;20056;-66
2022/06/10 00:34:53;;;;;;;13.65;6.78;;;;;;;;;;5063032;28;20057;-67
2022/06/10 00:37:24;;;;;;;12.70;6.22;;;;;;;;;;5073123;28;20036;-67
2022/06/10 00:39:54;;;;;;;15.35;8.57;;;;;;;;;;5072689;28;20048;-67
2022/06/10 00:42:25;;;;;;;15.20;6.43;;;;;;;;;;5056485;28;20052;-67
2022/06/10 00:44:56;;;;;;;13.35;6.65;;;;;;;;;;5072703;28;20047;-67
2022/06/10 00:47:39;;;;;;;14.40;6.50;;;;;;;;;;5073702;28;20052;-67
2022/06/10 00:50:24;;;;;;;14.30;6.20;;;;;;;;;;5074942;28;20049;-67
2022/06/10 00:53:04;;;;;;;12.57;6.35;;;;;;;;;;5074873;28;20056;-67
2022/06/10 00:55:36;;;;;;;14.18;5.80;;;;;;;;;;5074685;28;20051;-67
2022/06/10 00:58:27;;;;;;;13.15;6.38;;;;;;;;;;5035884;28;20045;-67
2022/06/10 01:00:57;;;;;;;13.10;6.22;;;;;;;;;;5052615;28;20060;-67
2022/06/10 01:03:28;;;;;;;11.93;5.40;;;;;;;;;;5012217;28;20536;-67
2022/06/10 01:05:58;;;;;;;12.13;5.55;;;;;;;;;;4979978;28;20058;-67
2022/06/10 01:08:29;;;;;;;11.98;5.68;;;;;;;;;;4953939;29;20055;-66
2022/06/10 01:11:23;;;;;;;12.75;6.03;;;;;;;;;;4954186;29;20403;-67
2022/06/10 01:14:06;;;;;;;11.93;6.10;;;;;;;;;;4954215;29;20066;-66
2022/06/10 01:17:06;;;;;;;11.15;5.53;;;;;;;;;;4953902;29;20074;-66
2022/06/10 01:19:51;;;;;;;13.32;7.72;;;;;;;;;;4877918;29;20057;-66
2022/06/10 01:22:54;;;;;;;12.65;6.00;;;;;;;;;;4878113;29;20053;-66
2022/06/10 01:25:43;;;;;;;11.38;6.10;;;;;;;;;;4878232;29;20088;-67
2022/06/10 01:28:20;;;;;;;11.93;5.93;;;;;;;;;;4878247;29;20064;-67
2022/06/10 01:31:02;;;;;;;17.05;6.57;;;;;;;;;;4878146;29;20081;-67
2022/06/10 01:33:50;;;;;;;17.00;7.75;;;;;;;;;;4878188;29;20072;-67
2022/06/10 01:36:47;;;;;;;16.33;7.40;;;;;;;;;;4876702;29;20068;-67
2022/06/10 01:39:35;;;;;;;13.75;6.70;;;;;;;;;;4896636;29;20056;-67
2022/06/10 01:42:14;;;;;;;13.88;6.85;;;;;;;;;;4885348;29;20059;-67
2022/06/10 01:44:50;;;;;;;;;;;;;;;;;;4919189;29;20503;-67
2022/06/10 01:47:36;;;;;;;11.57;7.22;;;;;;;;;;4992176;28;19922;-67
2022/06/10 01:50:15;;;;;;;14.25;7.88;;;;;;;;;;4992209;28;20072;-67
2022/06/10 01:53:12;;;;;;;13.88;7.30;;;;;;;;;;4940537;28;20055;-67
2022/06/10 01:55:47;;;;;;;12.50;6.45;;;;;;;;;;4949379;28;20049;-67
2022/06/10 01:58:27;;;;;;;12.82;5.57;;;;;;;;;;5031415;28;20060;-67
2022/06/10 02:01:09;;;;;;;11.48;6.57;;;;;;;;;;4998613;28;20120;-67
2022/06/10 02:03:54;;;;;;;11.48;5.88;;;;;;;;;;5031090;28;20061;-67
2022/06/10 02:06:34;;;;;;;11.88;5.60;;;;;;;;;;5031209;28;20038;-67
2022/06/10 02:09:13;;;;;;;11.57;5.95;;;;;;;;;;5031320;28;20045;-66
2022/06/10 02:11:46;;;;;;;;;;;;;;;;;;5031713;28;20069;-67
2022/06/10 02:14:42;;;;;;;9.07;5.20;;;;;;;;;;5017897;28;19925;-67
2022/06/10 02:17:15;;;;;;;11.88;5.28;;;;;;;;;;5031008;28;20521;-67
2022/06/10 02:19:53;;;;;;;10.40;4.97;;;;;;;;;;5047250;28;20084;-67
2022/06/10 02:22:32;;;;;;;10.60;6.17;;;;;;;;;;5042902;28;20057;-67
2022/06/10 02:25:08;;;;;;;10.98;5.30;;;;;;;;;;5050947;28;20428;-67
2022/06/10 02:27:42;;;;;;;10.07;4.32;;;;;;;;;;5034372;28;20395;-67
2022/06/10 02:30:18;;;;;;;9.38;4.60;;;;;;;;;;5010351;28;20057;-66
2022/06/10 02:32:50;;;;;;;9.93;5.53;;;;;;;;;;5010977;28;20088;-67
2022/06/10 02:35:20;;;;;;;9.90;5.22;;;;;;;;;;5011173;28;20057;-67
2022/06/10 02:38:09;;;;;;;12.02;4.43;;;;;;;;;;4994988;28;20065;-67
2022/06/10 02:41:09;;;;;;;8.90;3.90;;;;;;;;;;5010854;28;20041;-67
2022/06/10 02:44:11;;;;;;;11.13;4.68;;;;;;;;;;4962093;28;20057;-67
2022/06/10 02:46:53;;;;;;;9.13;4.53;;;;;;;;;;4920683;29;20499;-67
2022/06/10 02:49:23;;;;;;;8.10;3.67;;;;;;;;;;4952427;29;20159;-67
2022/06/10 02:51:53;;;;;;;11.77;5.10;;;;;;;;;;4936764;29;20063;-67
2022/06/10 02:54:37;;;;;;;9.13;4.55;;;;;;;;;;4952067;29;20069;-67
2022/06/10 03:01:11;;;;;;;8.48;4.40;;;;;;;;;;4920643;29;20578;-67
2022/06/10 03:03:16;;;;;;;12.60;4.68;;;;;;;;;;4952356;29;20054;-67
2022/06/10 03:06:11;;;;;;;12.15;5.47;;;;;;;;;;4952280;29;20466;-67
2022/06/10 03:08:48;;;;;;;9.07;4.03;;;;;;;;;;4937752;28;20053;-67
2022/06/10 03:11:35;;;;;;;8.80;4.00;;;;;;;;;;5024641;28;20062;-67
2022/06/10 03:14:32;;;;;;;14.57;4.82;;;;;;;;;;5030172;28;20049;-66
2022/06/10 03:18:01;;;;;;;9.27;4.82;;;;;;;;;;4994259;28;20058;-67
2022/06/10 03:21:19;;;;;;;8.07;4.53;;;;;;;;;;4957040;28;20079;-67
2022/06/10 03:24:09;;;;;;;8.32;3.63;;;;;;;;;;4986915;28;20058;-66
2022/06/10 03:26:53;;;;;;;8.65;4.65;;;;;;;;;;4990991;28;20050;-67
2022/06/10 03:29:39;;;;;;;8.82;5.28;;;;;;;;;;4970898;28;20070;-67
2022/06/10 03:32:50;;;;;;;8.55;4.28;;;;;;;;;;4932713;29;20056;-67
2022/06/10 03:35:46;;;;;;;6.57;3.53;;;;;;;;;;4913748;29;20064;-67
2022/06/10 03:38:32;;;;;;;7.38;3.88;;;;;;;;;;4913733;29;20535;-67
2022/06/10 03:41:41;;;;;;;11.75;3.25;;;;;;;;;;4913804;29;20064;-67
2022/06/10 03:44:18;;;;;;;7.00;3.22;;;;;;;;;;4901944;29;20416;-67
2022/06/10 03:47:06;;;;;;;8.00;4.32;;;;;;;;;;4917490;29;20420;-67
2022/06/10 03:50:00;;;;;;;9.88;3.85;;;;;;;;;;4917332;29;20158;-67
2022/06/10 03:52:44;;;;;;;8.40;3.40;;;;;;;;;;4917505;29;20064;-67
2022/06/10 03:55:25;;;;;;;9.60;5.35;;;;;;;;;;4875574;29;20056;-67
2022/06/10 03:57:56;;;;;;;9.65;4.47;;;;;;;;;;4934834;29;20060;-67
2022/06/10 04:00:28;;;;;;;10.05;5.07;;;;;;;;;;4936355;29;20056;-67
2022/06/10 04:02:58;;;;;;;6.38;3.30;;;;;;;;;;4943628;29;20189;-67
2022/06/10 04:05:29;;;;;;;8.13;4.07;;;;;;;;;;4939416;29;20547;-67
2022/06/10 04:07:59;;;;;;;12.35;4.25;;;;;;;;;;4939591;29;20059;-67
2022/06/10 04:10:30;;;;;;;10.48;4.30;;;;;;;;;;4955099;29;20138;-67
2022/06/10 04:13:00;;;;;;;9.02;3.85;;;;;;;;;;4990876;28;20065;-67
2022/06/10 04:15:32;;;;;;;11.40;4.70;;;;;;;;;;5013168;28;20505;-68
2022/06/10 04:18:04;;;;;;;8.45;4.20;;;;;;;;;;5013241;28;20054;-66
2022/06/10 04:20:37;;;;;;;14.52;4.85;;;;;;;;;;5013522;28;20053;-67
2022/06/10 04:23:09;;;;;;;8.70;3.72;;;;;;;;;;5013151;28;20054;-67
2022/06/10 04:25:41;;;;;;;7.03;3.88;;;;;;;;;;5013293;28;20057;-67
2022/06/10 04:28:13;;;;;;;8.57;4.28;;;;;;;;;;5013121;28;20062;-67
2022/06/10 04:30:47;;;;;;;11.77;4.47;;;;;;;;;;4996841;28;20129;-67
2022/06/10 04:33:18;;;;;;;10.15;3.33;;;;;;;;;;4996558;28;20204;-67
2022/06/10 04:35:51;;;;;;;7.40;3.25;;;;;;;;;;5013105;28;20061;-67
2022/06/10 04:38:23;;;;;;;9.80;3.33;;;;;;;;;;5013092;28;20046;-67
2022/06/10 04:40:53;;;;;;;9.45;3.50;;;;;;;;;;5017705;28;20504;-67
2022/06/10 04:43:23;;;;;;;7.28;2.92;;;;;;;;;;4974947;28;20049;-67
2022/06/10 04:45:56;;;;;;;8.02;3.60;;;;;;;;;;5056434;28;20063;-67
2022/06/10 04:48:26;;;;;;;8.43;3.95;;;;;;;;;;5039302;28;20052;-67
2022/06/10 04:50:57;;;;;;;11.85;4.20;;;;;;;;;;5072667;28;20083;-67
2022/06/10 04:53:27;;;;;;;9.40;4.65;;;;;;;;;;5033153;28;20063;-67
2022/06/10 04:55:57;;;;;;;8.55;3.70;;;;;;;;;;5094956;28;20475;-67
2022/06/10 04:58:28;;;;;;;18.38;3.63;;;;;;;;;;5094733;28;20479;-66
2022/06/10 05:00:58;;;;;;;10.45;4.55;;;;;;;;;;5093798;28;20051;-67
2022/06/10 05:03:29;;;;;;;12.77;4.75;;;;;;;;;;5094662;28;20059;-67
2022/06/10 05:05:59;;;;;;;9.55;3.75;;;;;;;;;;5094746;28;20047;-67
2022/06/10 05:08:29;;;;;;;7.53;3.88;;;;;;;;;;5077400;28;20048;-67
2022/06/10 05:11:00;;;;;;;8.55;4.05;;;;;;;;;;5094651;28;20040;-67
2022/06/10 05:13:30;;;;;;;9.93;3.85;;;;;;;;;;5059401;28;20067;-67
2022/06/10 05:16:00;;;;;;;9.30;3.70;;;;;;;;;;5075907;28;20059;-67
2022/06/10 05:18:31;;;;;;;9.82;3.47;;;;;;;;;;5094575;28;20040;-67
2022/06/10 05:21:02;;;;;;;12.90;4.32;;;;;;;;;;5094347;28;20055;-67
2022/06/10 05:23:33;;;;;;;10.45;4.82;;;;;;;;;;5094343;28;20047;-67
2022/06/10 05:26:03;;;;;;;9.10;4.45;;;;;;;;;;5043116;28;20075;-67
2022/06/10 05:28:37;;;;;;;8.02;3.97;;;;;;;;;;5094286;28;20055;-67
2022/06/10 05:31:07;;;;;;;11.02;3.63;;;;;;;;;;5058709;28;20411;-67
2022/06/10 05:36:26;;;;;;;7.90;4.10;;;;;;;;;;5094210;28;20044;-67
2022/06/10 05:38:56;;;;;;;8.00;3.15;;;;;;;;;;5093930;28;20051;-67
2022/06/10 05:44:15;;;;;;;6.43;3.40;;;;;;;;;;5093964;28;20044;-67
2022/06/10 05:46:46;;;;;;;7.18;3.33;;;;;;;;;;5043159;28;20510;-67
2022/06/10 05:49:16;;;;;;;7.75;3.22;;;;;;;;;;5051048;28;20053;-67
2022/06/10 05:51:46;;;;;;;8.95;3.50;;;;;;;;;;5018635;28;20053;-67
2022/06/10 05:54:17;;;;;;;8.85;3.20;;;;;;;;;;5018834;28;20061;-67
2022/06/10 05:56:48;;;;;;;10.25;4.00;;;;;;;;;;5011438;28;20053;-67
2022/06/10 05:59:22;;;;;;;9.23;3.30;;;;;;;;;;5011492;28;20049;-67
2022/06/10 06:01:53;;;;;;;7.97;3.25;;;;;;;;;;5011433;28;20046;-67
2022/06/10 06:04:23;;;;;;;8.10;3.03;;;;;;;;;;5010464;28;20054;-67
2022/06/10 06:06:54;;;;;;;7.63;4.40;;;;;;;;;;5011501;28;20524;-67
2022/06/10 06:09:26;;;;;;;8.50;3.72;;;;;;;;;;5011374;28;20054;-67
2022/06/10 06:11:57;;;;;;;7.35;3.20;;;;;;;;;;4995008;28;20046;-67
2022/06/10 06:14:28;;;;;;;11.80;3.65;;;;;;;;;;4995179;28;20081;-67
2022/06/10 06:17:02;;;;;;;8.45;3.78;;;;;;;;;;5011506;28;20596;-67
2022/06/10 06:19:34;;;;;;;8.48;4.50;;;;;;;;;;5011184;28;20057;-67
2022/06/10 06:22:05;;;;;;;;;;;;;;;;;;5011637;28;20069;-67
2022/06/10 06:24:39;;;;;;;8.27;3.95;;;;;;;;;;5011177;28;19925;-67
2022/06/10 06:27:14;;;;;;;9.63;5.88;;;;;;;;;;5002639;28;20053;-68
2022/06/10 06:29:45;;;;;;;9.23;3.72;;;;;;;;;;5050559;28;20128;-67
2022/06/10 06:32:15;;;;;;;9.52;4.50;;;;;;;;;;5034671;28;20054;-67
2022/06/10 06:34:45;;;;;;;8.63;4.70;;;;;;;;;;5059777;28;20523;-67
2022/06/10 06:37:17;;;;;;;8.68;3.83;;;;;;;;;;5091412;28;20510;-68
2022/06/10 06:39:48;;;;;;;8.48;3.58;;;;;;;;;;5073834;28;20044;-70
2022/06/10 06:42:17;;;;;;;11.88;4.40;;;;;;;;;;5092231;28;20487;-68
2022/06/10 06:44:58;;;;;;;8.90;4.38;;;;;;;;;;5050039;28;20052;-71
2022/06/10 06:47:49;;;;;;;8.27;3.90;;;;;;;;;;5030227;28;20084;-68
2022/06/10 06:50:24;;;;;;;8.38;3.75;;;;;;;;;;4958365;28;20038;-70
2022/06/10 06:52:55;;;;;;;9.65;4.38;;;;;;;;;;4991057;28;20069;-69
2022/06/10 06:55:34;;;;;;;;;;;;;;;;;;4991621;28;20073;-68
2022/06/10 06:58:05;;;;;;;;;;;;;;;;;;4991422;28;19921;-69
2022/06/10 07:00:36;;;;;;;9.52;3.72;;;;;;;;;;4991095;28;19922;-70
2022/06/10 07:03:07;;;;;;;9.50;4.43;;;;;;;;;;4971253;28;20391;-70
2022/06/10 07:05:39;;;;;;;12.40;5.00;;;;;;;;;;4971573;28;20058;-71
2022/06/10 07:08:10;;;;;;;7.93;3.75;;;;;;;;;;4971482;28;20062;-71
2022/06/10 07:10:41;;;;;;;8.90;4.10;;;;;;;;;;4971501;28;20059;-71
2022/06/10 07:13:12;;;;;;;9.00;4.38;;;;;;;;;;4971430;28;20059;-71
2022/06/10 07:15:43;;;;;;;7.97;4.20;;;;;;;;;;4971154;28;20055;-72
2022/06/10 07:18:13;;;;;;;9.90;4.53;;;;;;;;;;4971280;28;20204;-71
2022/06/10 07:20:44;;;;;;;8.80;4.63;;;;;;;;;;4955773;28;20623;-73
2022/06/10 07:23:16;;;;;;;9.32;3.85;;;;;;;;;;4956247;28;20043;-70
2022/06/10 07:25:47;;;;;;;9.07;4.50;;;;;;;;;;4945073;29;20087;-71
2022/06/10 07:28:18;;;;;;;9.00;4.10;;;;;;;;;;4964461;28;20055;-71
2022/06/10 07:30:48;;;;;;;7.28;4.13;;;;;;;;;;4971474;28;20691;-71
2022/06/10 07:33:19;;;;;;;9.43;3.70;;;;;;;;;;4971169;28;20058;-70
2022/06/10 07:35:49;;;;;;;7.30;3.63;;;;;;;;;;4971323;28;20093;-70
2022/06/10 07:38:20;;;;;;;6.80;3.47;;;;;;;;;;4971259;28;20087;-71
2022/06/10 07:43:43;;;;;;;8.93;4.30;;;;;;;;;;4990602;28;20531;-70
2022/06/10 07:46:16;;;;;;;10.07;3.80;;;;;;;;;;4958298;28;20061;-71
2022/06/10 07:48:47;;;;;;;10.98;3.92;;;;;;;;;;4974738;28;20465;-74
2022/06/10 07:51:19;;;;;;;7.43;3.90;;;;;;;;;;4986039;28;20043;-69
2022/06/10 07:53:50;;;;;;;7.25;3.85;;;;;;;;;;4971087;28;20059;-72
2022/06/10 07:56:22;;;;;;;7.63;3.63;;;;;;;;;;4970983;28;20063;-70
2022/06/10 07:58:53;;;;;;;8.07;3.83;;;;;;;;;;4971046;28;21120;-69
2022/06/10 08:01:23;;;;;;;11.55;4.25;;;;;;;;;;4990224;28;20060;-69
2022/06/10 08:03:53;;;;;;;10.55;3.75;;;;;;;;;;4976542;28;20055;-68
2022/06/10 08:06:26;;;;;;;9.23;4.47;;;;;;;;;;4970813;28;20063;-68
2022/06/10 08:08:57;;;;;;;8.32;4.75;;;;;;;;;;4970690;28;20062;-68
2022/06/10 08:11:27;;;;;;;8.25;4.22;;;;;;;;;;4971252;28;20059;-67
2022/06/10 08:13:58;;;;;;;6.22;2.75;;;;;;;;;;4970873;28;20066;-68
2022/06/10 08:16:28;;;;;;;7.57;3.45;;;;;;;;;;4970975;28;20059;-67
2022/06/10 08:18:58;;;;;;;7.95;3.22;;;;;;;;;;4938707;28;20051;-67
2022/06/10 08:24:20;;;;;;;8.52;3.05;;;;;;;;;;4990281;28;20042;-67
2022/06/10 08:26:51;;;;;;;8.35;3.90;;;;;;;;;;4990086;28;20058;-67
2022/06/10 08:29:21;;;;;;;8.90;4.22;;;;;;;;;;5019757;28;20053;-68
2022/06/10 08:31:52;;;;;;;8.45;3.65;;;;;;;;;;5001023;28;20061;-70
2022/06/10 08:34:23;;;;;;;11.07;4.28;;;;;;;;;;4999995;28;20064;-71
2022/06/10 08:36:53;;;;;;;10.30;4.85;;;;;;;;;;4993454;28;20065;-70
2022/06/10 08:39:23;;;;;;;9.93;4.00;;;;;;;;;;5006347;28;20498;-69
2022/06/10 08:42:18;;;;;;;10.45;4.50;;;;;;;;;;5013360;28;20415;-68
2022/06/10 08:44:49;;;;;;;10.38;5.03;;;;;;;;;;4961074;28;20625;-68
2022/06/10 08:47:30;;;;;;;13.48;4.50;;;;;;;;;;4960944;28;20616;-67
2022/06/10 08:50:37;;;;;;;9.20;4.05;;;;;;;;;;4993315;28;20065;-68
2022/06/10 08:53:48;;;;;;;10.02;5.00;;;;;;;;;;4993394;28;20047;-68
2022/06/10 08:56:24;;;;;;;12.70;5.85;;;;;;;;;;4935400;29;20059;-68
2022/06/10 08:59:02;;;;;;;11.98;4.80;;;;;;;;;;4935266;29;20055;-67
2022/06/10 09:02:00;;;;;;;9.52;4.68;;;;;;;;;;4903382;29;20060;-67
2022/06/10 09:05:06;;;;;;;11.75;4.45;;;;;;;;;;4893872;29;20539;-67
2022/06/10 09:07:51;;;;;;;12.45;5.93;;;;;;;;;;4916014;29;20071;-67
2022/06/10 09:10:33;;;;;;;12.15;5.55;;;;;;;;;;4916156;29;20048;-67
2022/06/10 09:13:22;;;;;;;13.20;5.90;;;;;;;;;;4916017;29;20169;-67
2022/06/10 09:16:21;;;;;;;13.98;5.40;;;;;;;;;;4900608;29;20436;-67
2022/06/10 09:19:01;;;;;;;13.30;6.00;;;;;;;;;;4900645;29;20405;-67
2022/06/10 09:21:50;;;;;;;15.65;6.68;;;;;;;;;;4917784;29;20071;-67
2022/06/10 09:24:28;;;;;;;14.90;6.80;;;;;;;;;;4919798;29;20060;-67
2022/06/10 09:27:20;;;;;;;14.38;6.70;;;;;;;;;;4934855;29;20068;-67
2022/06/10 09:29:51;;;;;;;14.65;5.88;;;;;;;;;;4903860;29;20071;-67
2022/06/10 09:32:25;;;;;;;13.85;6.30;;;;;;;;;;4938135;29;20066;-67
2022/06/10 09:35:21;;;;;;;16.25;7.32;;;;;;;;;;4937591;29;20055;-67
2022/06/10 09:38:13;;;;;;;14.25;8.07;;;;;;;;;;4938389;29;20047;-68
2022/06/10 09:41:22;;;;;;;15.02;6.38;;;;;;;;;;4978340;28;20047;-68
2022/06/10 09:44:20;;;;;;;18.00;6.10;;;;;;;;;;4953565;29;20128;-67
2022/06/10 09:47:14;;;;;;;13.93;5.35;;;;;;;;;;4921658;29;20077;-68
2022/06/10 09:50:13;;;;;;;13.38;5.78;;;;;;;;;;4937861;29;20047;-68
2022/06/10 09:53:09;;;;;;;14.70;5.53;;;;;;;;;;4953501;29;20059;-68
2022/06/10 09:56:18;;;;;;;15.85;6.13;;;;;;;;;;4915311;29;20060;-69
2022/06/10 09:59:06;;;;;;;13.52;5.40;;;;;;;;;;4915273;29;20444;-68
2022/06/10 10:02:19;;;;;;;11.93;5.22;;;;;;;;;;4883392;29;20508;-67
2022/06/10 10:05:08;;;;;;;12.38;5.60;;;;;;;;;;4858923;29;20061;-66
2022/06/10 10:07:58;;;;;;;15.18;5.47;;;;;;;;;;4858752;29;20061;-67
2022/06/10 10:10:45;;;;;;;13.10;6.00;;;;;;;;;;4840383;29;20065;-67
2022/06/10 10:13:37;;;;;;;12.95;5.63;;;;;;;;;;4821846;29;20415;-67
2022/06/10 10:16:17;;;;;;;;;;;;;;;;;;4804177;29;20058;-67
2022/06/10 10:19:08;;;;;;;13.13;5.10;;;;;;;;;;4803941;29;20314;-67
2022/06/10 10:22:02;;;;;;;13.73;5.57;;;;;;;;;;4892336;29;20056;-66
2022/06/10 10:24:39;;;;;;;12.68;5.53;;;;;;;;;;4914733;29;20064;-67
2022/06/10 10:27:17;;;;;;;15.35;6.25;;;;;;;;;;4914420;29;20064;-67
2022/06/10 10:29:52;;;;;;;12.88;5.82;;;;;;;;;;4911349;29;20052;-67
2022/06/10 10:32:29;;;;;;;12.20;5.30;;;;;;;;;;4864521;29;20496;-66
2022/06/10 10:35:05;;;;;;;15.73;6.88;;;;;;;;;;4864652;29;20425;-66
2022/06/10 10:37:39;;;;;;;13.02;5.82;;;;;;;;;;4895742;29;20061;-66
2022/06/10 10:40:18;;;;;;;15.43;6.20;;;;;;;;;;4895631;29;20063;-66
2022/06/10 10:42:53;;;;;;;14.90;5.90;;;;;;;;;;4914643;29;20056;-66
2022/06/10 10:45:32;;;;;;;18.20;9.43;;;;;;;;;;4914037;29;20055;-66
2022/06/10 10:48:27;;;;;;;35.58;18.10;;;;;;;;;;4932067;29;20055;-66
2022/06/10 10:51:17;;;;;;;15.65;7.72;;;;;;;;;;4932133;29;20048;-67
2022/06/10 10:54:23;;;;;;;14.27;6.07;;;;;;;;;;4914544;29;20056;-66
2022/06/10 10:56:55;;;;;;;12.13;5.78;;;;;;;;;;4914292;29;20064;-66
2022/06/10 10:59:34;;;;;;;14.68;6.57;;;;;;;;;;4943693;29;20510;-66
2022/06/10 11:02:23;;;;;;;;;;;;;;;;;;4945697;28;20054;-66
2022/06/10 11:05:16;;;;;;;11.27;4.85;;;;;;;;;;4974771;28;19922;-67
2022/06/10 11:07:47;;;;;;;12.38;5.13;;;;;;;;;;4990783;28;20054;-65
2022/06/10 11:10:22;;;;;;;10.90;4.68;;;;;;;;;;4975033;28;20164;-68
2022/06/10 11:12:53;;;;;;;12.82;4.97;;;;;;;;;;4990827;28;20042;-66
2022/06/10 11:15:28;;;;;;;11.73;4.78;;;;;;;;;;4990456;28;20062;-68
2022/06/10 11:18:01;;;;;;;11.40;4.60;;;;;;;;;;4990799;28;20062;-67
2022/06/10 11:20:39;;;;;;;10.52;5.28;;;;;;;;;;4990632;28;20058;-68
2022/06/10 11:23:21;;;;;;;9.68;4.30;;;;;;;;;;5003595;28;20504;-68
2022/06/10 11:26:12;;;;;;;11.88;4.45;;;;;;;;;;5029782;28;20056;-68
2022/06/10 11:28:44;;;;;;;10.23;4.18;;;;;;;;;;5018835;28;20069;-69
2022/06/10 11:31:28;;;;;;;10.75;4.40;;;;;;;;;;4978306;28;20049;-66
2022/06/10 11:34:00;;;;;;;9.65;5.13;;;;;;;;;;5010077;28;20046;-67
2022/06/10 11:36:43;;;;;;;10.00;3.88;;;;;;;;;;5015561;28;20525;-67
2022/06/10 11:39:23;;;;;;;12.02;4.45;;;;;;;;;;4989953;28;20050;-67
2022/06/10 11:42:18;;;;;;;9.02;4.13;;;;;;;;;;4990328;28;20058;-67
2022/06/10 11:45:02;;;;;;;10.05;5.28;;;;;;;;;;4932154;29;20475;-67
2022/06/10 11:47:40;;;;;;;8.15;3.75;;;;;;;;;;4932439;29;20522;-66
2022/06/10 11:50:19;;;;;;;9.93;4.63;;;;;;;;;;4932485;29;20062;-67
2022/06/10 11:53:01;;;;;;;8.30;3.97;;;;;;;;;;4940283;29;20544;-68
2022/06/10 11:55:38;;;;;;;10.57;4.80;;;;;;;;;;4913528;29;20059;-68
2022/06/10 12:01:28;;;;;;;8.75;3.63;;;;;;;;;;4875752;29;20053;-67
2022/06/10 12:04:00;;;;;;;11.40;5.20;;;;;;;;;;4878658;29;20053;-66
2022/06/10 12:07:02;;;;;;;8.75;4.00;;;;;;;;;;4868501;29;20061;-66
2022/06/10 12:09:42;;;;;;;12.43;4.22;;;;;;;;;;4846587;29;20054;-66
2022/06/10 12:12:34;;;;;;;9.60;4.25;;;;;;;;;;4812155;29;20061;-66
2022/06/10 12:15:33;;;;;;;7.40;3.50;;;;;;;;;;4842349;29;20538;-67
2022/06/10 12:18:10;;;;;;;8.13;4.00;;;;;;;;;;4883406;29;20060;-67
2022/06/10 12:20:49;;;;;;;10.65;4.30;;;;;;;;;;4897976;29;20067;-66
2022/06/10 12:23:31;;;;;;;9.13;4.18;;;;;;;;;;4968264;28;20055;-67
2022/06/10 12:26:05;;;;;;;9.02;3.25;;;;;;;;;;4954637;29;20058;-67
2022/06/10 12:28:46;;;;;;;7.72;3.75;;;;;;;;;;4907013;29;20055;-67
2022/06/10 12:31:45;;;;;;;9.27;3.95;;;;;;;;;;4907338;29;20055;-66
2022/06/10 12:34:55;;;;;;;8.57;3.40;;;;;;;;;;4907404;29;20145;-66
2022/06/10 12:37:48;;;;;;;9.52;4.28;;;;;;;;;;4959682;28;20054;-68
2022/06/10 12:40:27;;;;;;;13.32;5.15;;;;;;;;;;5013355;28;20041;-66
2022/06/10 12:43:06;;;;;;;9.48;3.05;;;;;;;;;;4970183;28;20051;-67
2022/06/10 12:45:47;;;;;;;5.85;2.83;;;;;;;;;;4955014;29;20051;-67
2022/06/10 12:48:27;;;;;;;17.83;8.45;;;;;;;;;;4954322;29;20063;-67
2022/06/10 12:51:18;;;;;;;10.25;4.45;;;;;;;;;;4954696;29;20154;-68
2022/06/10 12:54:25;;;;;;;6.38;2.50;;;;;;;;;;4954525;29;20070;-67
2022/06/10 12:57:22;;;;;;;5.38;2.15;;;;;;;;;;4993146;28;20501;-66
2022/06/10 13:00:18;;;;;;;7.50;4.03;;;;;;;;;;4977687;28;20058;-66
2022/06/10 13:03:18;;;;;;;5.82;3.42;;;;;;;;;;5015796;28;20053;-67
2022/06/10 13:05:51;;;;;;;6.70;2.97;;;;;;;;;;4938135;29;20047;-68
2022/06/10 13:08:47;;;;;;;4.22;2.20;;;;;;;;;;4953949;29;20056;-68
2022/06/10 13:11:46;;;;;;;4.03;1.80;;;;;;;;;;4954217;29;20518;-66
2022/06/10 13:14:30;;;;;;;6.03;2.92;;;;;;;;;;4847867;29;20056;-67
2022/06/10 13:17:00;;;;;;;5.10;2.53;;;;;;;;;;4878310;29;20061;-68
2022/06/10 13:19:42;;;;;;;4.75;2.00;;;;;;;;;;4879056;29;20052;-68
2022/06/10 13:22:25;;;;;;;6.15;2.28;;;;;;;;;;4896829;29;20548;-67
2022/06/10 13:24:55;;;;;;;5.07;2.40;;;;;;;;;;4881000;29;20070;-67
2022/06/10 13:27:29;;;;;;;4.18;1.83;;;;;;;;;;4865675;29;20056;-67
2022/06/10 13:30:13;;;;;;;3.97;1.83;;;;;;;;;;4896792;29;20064;-66
2022/06/10 13:33:15;;;;;;;4.22;2.05;;;;;;;;;;4850416;29;20413;-66
2022/06/10 13:35:46;;;;;;;5.05;2.47;;;;;;;;;;4896580;29;20065;-67
2022/06/10 13:38:20;;;;;;;4.13;1.77;;;;;;;;;;4896625;29;20072;-66
2022/06/10 13:41:48;;;;;;;4.20;3.20;;;;;;;;;;4896614;29;20057;-67
2022/06/10 13:43:46;;;;;;;5.07;1.92;;;;;;;;;;4935347;29;20164;-66
2022/06/10 13:46:35;;;;;;;4.05;1.95;;;;;;;;;;4953409;29;20051;-67
2022/06/10 13:49:45;;;;;;;4.03;2.22;;;;;;;;;;4953465;29;20511;-67
2022/06/10 13:52:36;;;;;;;3.15;1.30;;;;;;;;;;4955733;28;20438;-67
2022/06/10 13:55:45;;;;;;;3.05;1.60;;;;;;;;;;4924949;28;20073;-67
2022/06/10 13:58:23;;;;;;;4.55;1.90;;;;;;;;;;4918287;29;20082;-67
2022/06/10 14:01:06;;;;;;;3.03;1.40;;;;;;;;;;4918458;29;20443;-67
2022/06/10 14:03:42;;;;;;;4.35;2.20;;;;;;;;;;4952062;29;20063;-67
2022/06/10 14:06:13;;;;;;;6.72;2.63;;;;;;;;;;4905601;29;20078;-67
2022/06/10 14:09:07;;;;;;;4.10;1.73;;;;;;;;;;4921234;29;20055;-66
2022/06/10 14:11:43;;;;;;;5.07;2.28;;;;;;;;;;4917913;29;20055;-67
2022/06/10 14:14:19;;;;;;;4.88;1.88;;;;;;;;;;4911806;28;20070;-66
2022/06/10 14:17:03;;;;;;;4.15;1.80;;;;;;;;;;4972040;28;20414;-67
2022/06/10 14:19:41;;;;;;;3.17;1.20;;;;;;;;;;4954912;28;20062;-66
2022/06/10 14:22:23;;;;;;;;;;;;;;;;;;4963466;28;20050;-67
2022/06/10 14:25:14;;;;;;;3.13;1.40;;;;;;;;;;4969551;28;19929;-66
2022/06/10 14:28:02;;;;;;;3.78;1.90;;;;;;;;;;4923931;28;20454;-66
2022/06/10 14:30:37;;;;;;;4.18;1.60;;;;;;;;;;4971871;28;20435;-67
2022/06/10 14:33:32;;;;;;;2.67;1.40;;;;;;;;;;4971905;28;20066;-66
2022/06/10 14:36:11;;;;;;;3.42;2.15;;;;;;;;;;4971798;28;20055;-69
2022/06/10 14:38:44;;;;;;;2.75;1.20;;;;;;;;;;4971774;28;20059;-67
2022/06/10 14:41:18;;;;;;;4.32;1.45;;;;;;;;;;4971611;28;20058;-69
2022/06/10 14:44:18;;;;;;;4.45;1.40;;;;;;;;;;4939468;28;20047;-67
2022/06/10 14:47:12;;;;;;;1.95;1.08;;;;;;;;;;4971488;28;20059;-67
2022/06/10 14:50:05;;;;;;;2.90;1.27;;;;;;;;;;5004911;28;20064;-67
2022/06/10 14:52:50;;;;;;;4.00;2.10;;;;;;;;;;5013533;28;20064;-67
2022/06/10 14:55:25;;;;;;;2.58;1.27;;;;;;;;;;5030156;28;20068;-67
2022/06/10 14:58:03;;;;;;;7.63;2.70;;;;;;;;;;5013605;28;20053;-67
2022/06/10 15:00:35;;;;;;;2.85;0.88;;;;;;;;;;5048273;28;20048;-68
2022/06/10 15:03:15;;;;;;;2.90;1.35;;;;;;;;;;5069391;28;20060;-68
2022/06/10 15:06:15;;;;;;;1.85;1.13;;;;;;;;;;5072039;28;20055;-68
2022/06/10 15:08:53;;;;;;;3.15;1.50;;;;;;;;;;5037128;28;20410;-67
2022/06/10 15:11:29;;;;;;;1.55;0.70;;;;;;;;;;5054443;28;20056;-67
2022/06/10 15:13:59;;;;;;;1.77;0.90;;;;;;;;;;5071970;28;20053;-67
2022/06/10 15:16:29;;;;;;;1.90;1.20;;;;;;;;;;5032769;28;20049;-67
2022/06/10 15:19:19;;;;;;;1.25;0.73;;;;;;;;;;5049582;28;20064;-66
2022/06/10 15:21:52;;;;;;;1.13;0.70;;;;;;;;;;5049638;28;20101;-67
2022/06/10 15:24:25;;;;;;;1.83;1.30;;;;;;;;;;5017443;28;20505;-67
2022/06/10 15:26:55;;;;;;;;;;;;;;;;;;5016999;28;20072;-67
2022/06/10 15:29:28;;;;;;;2.60;1.23;;;;;;;;;;5049653;28;19921;-67
2022/06/10 15:31:59;;;;;;;2.30;0.93;;;;;;;;;;5029631;28;20069;-68
2022/06/10 15:34:31;;;;;;;1.98;1.25;;;;;;;;;;5029690;28;20049;-67
2022/06/10 15:42:39;;;;;;;2.03;1.20;;;;;;;;;;5033834;28;20049;-68
2022/06/10 15:45:13;;;;;;;1.58;0.70;;;;;;;;;;5033619;28;20053;-67
2022/06/10 15:47:43;;;;;;;3.63;1.10;;;;;;;;;;5016775;28;20056;-67
2022/06/10 15:50:13;;;;;;;2.20;1.40;;;;;;;;;;5033322;28;20049;-67
2022/06/10 15:52:44;;;;;;;1.67;0.65;;;;;;;;;;5017233;28;20428;-66
2022/06/10 15:58:18;;;;;;;1.45;0.80;;;;;;;;;;5053405;28;20053;-66
2022/06/10 16:00:51;;;;;;;1.13;0.60;;;;;;;;;;5036500;28;20492;-66
2022/06/10 16:03:22;;;;;;;2.70;1.00;;;;;;;;;;5053259;28;20068;-65
2022/06/10 16:05:53;;;;;;;3.78;2.33;;;;;;;;;;5053287;28;20087;-66
2022/06/10 16:08:24;;;;;;;2.17;0.90;;;;;;;;;;5053306;28;20053;-66
2022/06/10 16:10:57;;;;;;;2.17;1.27;;;;;;;;;;5075556;28;20044;-66
2022/06/10 16:13:42;;;;;;;2.83;1.02;;;;;;;;;;5056801;28;20066;-65
2022/06/10 16:16:23;;;;;;;2.15;1.30;;;;;;;;;;5075414;28;20044;-66
2022/06/10 16:18:56;;;;;;;1.60;0.77;;;;;;;;;;5075161;28;20403;-67
2022/06/10 16:21:30;;;;;;;2.30;0.90;;;;;;;;;;5056451;28;20063;-66